Time;durP1;ratioP1;P1;durP2;ratioP2;P2;SDS_P1;SDS_P2;PMS_P1;PMS_P2;Temp;Humidity;BMP_temperature;BMP_pressure;BME280_temperature;BME280_humidity;BME280_pressure;Samples;Min_cycle;Max_cycle;Signal;HPM_P1;HPM_P2
2022/02/18 00:02:40;;;;;;;3.70;0.93;;;;;;;;;;6226941;28;20042;-79
2022/02/18 00:05:43;;;;;;;5.25;1.02;;;;;;;;;;6215829;28;20107;-83
2022/02/18 00:08:45;;;;;;;10.48;1.33;;;;;;;;;;6216351;28;20046;-81
2022/02/18 00:11:47;;;;;;;10.10;1.40;;;;;;;;;;6215154;28;20522;-80
2022/02/18 00:14:49;;;;;;;4.78;0.95;;;;;;;;;;6213488;28;20046;-82
2022/02/18 00:17:54;;;;;;;8.52;1.10;;;;;;;;;;6229345;28;20037;-82
2022/02/18 00:20:55;;;;;;;8.38;1.25;;;;;;;;;;6254263;28;20051;-81
2022/02/18 00:23:57;;;;;;;10.07;1.88;;;;;;;;;;6240087;28;20041;-82
2022/02/18 00:26:59;;;;;;;13.60;1.35;;;;;;;;;;6223427;28;20152;-81
2022/02/18 00:30:00;;;;;;;11.50;1.80;;;;;;;;;;6229413;28;20502;-81
2022/02/18 00:33:02;;;;;;;12.57;1.67;;;;;;;;;;6213449;28;20052;-79
2022/02/18 00:36:04;;;;;;;14.57;1.85;;;;;;;;;;6230280;28;20152;-82
2022/02/18 00:39:05;;;;;;;10.32;1.50;;;;;;;;;;6229772;28;20115;-80
2022/02/18 00:42:07;;;;;;;5.65;1.50;;;;;;;;;;6213147;28;20076;-81
2022/02/18 00:45:10;;;;;;;8.55;1.80;;;;;;;;;;6230396;28;20698;-80
2022/02/18 00:48:15;;;;;;;15.75;2.42;;;;;;;;;;6241161;28;20512;-79
2022/02/18 00:51:17;;;;;;;10.13;2.10;;;;;;;;;;6236606;28;20191;-80
2022/02/18 00:54:19;;;;;;;12.07;1.58;;;;;;;;;;6237629;28;20582;-81
2022/02/18 00:57:20;;;;;;;12.18;2.10;;;;;;;;;;6235947;28;20183;-81
2022/02/18 01:00:23;;;;;;;15.90;2.50;;;;;;;;;;6253545;28;20135;-82
2022/02/18 01:03:24;;;;;;;7.65;1.70;;;;;;;;;;6220058;28;20088;-78
2022/02/18 01:06:27;;;;;;;7.10;2.00;;;;;;;;;;6214467;28;20569;-79
2022/02/18 01:09:29;;;;;;;12.02;1.60;;;;;;;;;;6216354;28;20128;-81
2022/02/18 01:12:30;;;;;;;4.40;1.13;;;;;;;;;;6251740;28;20049;-79
2022/02/18 01:15:33;;;;;;;5.78;1.13;;;;;;;;;;6237355;28;20085;-81
2022/02/18 01:18:36;;;;;;;11.27;1.23;;;;;;;;;;6233518;28;20084;-82
2022/02/18 01:21:39;;;;;;;6.28;1.40;;;;;;;;;;6235160;28;20041;-79
2022/02/18 01:24:41;;;;;;;9.15;1.27;;;;;;;;;;6239983;28;20188;-79
2022/02/18 01:27:43;;;;;;;6.00;1.40;;;;;;;;;;6228337;28;20071;-79
2022/02/18 01:30:45;;;;;;;8.48;1.45;;;;;;;;;;6198042;28;20052;-82
2022/02/18 01:33:47;;;;;;;13.05;1.92;;;;;;;;;;6253624;28;20038;-82
2022/02/18 01:36:48;;;;;;;8.02;1.65;;;;;;;;;;6257590;28;20048;-79
2022/02/18 01:39:50;;;;;;;9.13;2.17;;;;;;;;;;6257203;28;20047;-80
2022/02/18 01:42:51;;;;;;;7.30;1.88;;;;;;;;;;6233291;28;20041;-82
2022/02/18 01:45:53;;;;;;;7.05;1.60;;;;;;;;;;6223788;28;20049;-81
2022/02/18 01:48:55;;;;;;;9.77;2.15;;;;;;;;;;6220255;28;20723;-81
2022/02/18 01:52:02;;;;;;;15.60;2.15;;;;;;;;;;6235424;28;20056;-82
2022/02/18 01:55:10;;;;;;;9.13;1.57;;;;;;;;;;6256616;28;20125;-82
2022/02/18 01:58:13;;;;;;;11.45;1.95;;;;;;;;;;6257384;28;20144;-79
2022/02/18 02:01:15;;;;;;;7.03;2.35;;;;;;;;;;6240205;28;20128;-80
2022/02/18 02:04:17;;;;;;;4.78;1.40;;;;;;;;;;6257308;28;20045;-80
2022/02/18 02:07:18;;;;;;;10.88;2.17;;;;;;;;;;6257225;28;20053;-80
2022/02/18 02:10:22;;;;;;;6.68;1.48;;;;;;;;;;6255814;28;20088;-82
2022/02/18 02:13:38;;;;;;;7.38;1.23;;;;;;;;;;6224273;28;20054;-82
2022/02/18 02:16:43;;;;;;;8.57;1.42;;;;;;;;;;6236352;28;20048;-79
2022/02/18 02:19:45;;;;;;;14.32;2.28;;;;;;;;;;6239551;28;20080;-81
2022/02/18 02:22:47;;;;;;;8.38;1.40;;;;;;;;;;6240423;28;20128;-82
2022/02/18 02:25:50;;;;;;;11.93;1.65;;;;;;;;;;6234873;28;20042;-79
2022/02/18 02:28:58;;;;;;;9.48;1.70;;;;;;;;;;6263033;28;20042;-79
2022/02/18 02:32:00;;;;;;;8.23;1.80;;;;;;;;;;6236636;28;20038;-79
2022/02/18 02:35:06;;;;;;;13.15;1.92;;;;;;;;;;6238708;28;20041;-78
2022/02/18 02:38:09;;;;;;;9.95;1.45;;;;;;;;;;6243327;28;20052;-82
2022/02/18 02:41:12;;;;;;;8.68;1.38;;;;;;;;;;6237886;28;20500;-80
2022/02/18 02:44:13;;;;;;;8.02;1.80;;;;;;;;;;6247678;28;20109;-78
2022/02/18 02:47:15;;;;;;;10.05;1.60;;;;;;;;;;6241512;28;20057;-81
2022/02/18 02:50:18;;;;;;;7.85;1.75;;;;;;;;;;6239428;28;20052;-80
2022/02/18 02:53:19;;;;;;;7.40;1.97;;;;;;;;;;6239023;28;20041;-81
2022/02/18 02:56:21;;;;;;;6.32;1.50;;;;;;;;;;6255920;28;20067;-80
2022/02/18 02:59:26;;;;;;;15.93;1.92;;;;;;;;;;6263963;28;20044;-81
2022/02/18 03:02:27;;;;;;;7.10;1.50;;;;;;;;;;6252450;28;20049;-81
2022/02/18 03:05:29;;;;;;;10.52;1.85;;;;;;;;;;6222698;28;20073;-81
2022/02/18 03:08:34;;;;;;;9.32;1.98;;;;;;;;;;6256097;28;20071;-80
2022/02/18 03:11:42;;;;;;;10.98;1.65;;;;;;;;;;6242855;28;20048;-81
2022/02/18 03:14:57;;;;;;;10.10;1.70;;;;;;;;;;6263480;28;20382;-79
2022/02/18 03:18:06;;;;;;;9.23;1.30;;;;;;;;;;6229600;28;20054;-81
2022/02/18 03:21:08;;;;;;;12.15;1.73;;;;;;;;;;6239708;28;20046;-79
2022/02/18 03:24:10;;;;;;;8.60;1.65;;;;;;;;;;6243648;28;20049;-79
2022/02/18 03:27:12;;;;;;;6.97;1.20;;;;;;;;;;6245709;28;20058;-78
2022/02/18 03:30:16;;;;;;;12.32;1.98;;;;;;;;;;6219568;28;20056;-81
2022/02/18 03:33:18;;;;;;;8.82;1.73;;;;;;;;;;6234855;28;20046;-78
2022/02/18 03:36:20;;;;;;;9.45;1.50;;;;;;;;;;6244575;28;20049;-78
2022/02/18 03:39:22;;;;;;;9.50;1.80;;;;;;;;;;6243132;28;20124;-82
2022/02/18 03:42:24;;;;;;;7.95;1.48;;;;;;;;;;6241112;28;20049;-81
2022/02/18 03:45:26;;;;;;;8.32;1.52;;;;;;;;;;6258813;28;20053;-79
2022/02/18 03:48:30;;;;;;;12.88;1.83;;;;;;;;;;6242870;28;20041;-79
2022/02/18 03:51:33;;;;;;;8.85;1.23;;;;;;;;;;6241944;28;20049;-81
2022/02/18 03:54:35;;;;;;;15.23;2.67;;;;;;;;;;6240490;28;20053;-81
2022/02/18 03:57:37;;;;;;;12.18;1.50;;;;;;;;;;6216849;28;20038;-80
2022/02/18 04:00:38;;;;;;;13.02;2.22;;;;;;;;;;6253616;28;20049;-81
2022/02/18 04:03:42;;;;;;;8.02;1.23;;;;;;;;;;6240984;28;20060;-79
2022/02/18 04:06:49;;;;;;;6.38;1.65;;;;;;;;;;6245272;28;20135;-80
2022/02/18 04:10:00;;;;;;;9.70;1.40;;;;;;;;;;6240142;28;20127;-80
2022/02/18 04:13:05;;;;;;;11.93;1.60;;;;;;;;;;6242627;28;20111;-82
2022/02/18 04:16:07;;;;;;;12.02;2.20;;;;;;;;;;6257536;28;20081;-81
2022/02/18 04:19:09;;;;;;;9.35;1.50;;;;;;;;;;6233771;28;20046;-81
2022/02/18 04:22:19;;;;;;;7.50;1.50;;;;;;;;;;6220417;28;20632;-80
2022/02/18 04:25:21;;;;;;;11.23;2.03;;;;;;;;;;6244866;28;20072;-80
2022/02/18 04:28:24;;;;;;;15.00;2.65;;;;;;;;;;6221406;28;20038;-78
2022/02/18 04:31:25;;;;;;;11.75;2.17;;;;;;;;;;6257190;28;20058;-78
2022/02/18 04:34:27;;;;;;;9.75;1.95;;;;;;;;;;6250084;28;20095;-80
2022/02/18 04:37:28;;;;;;;8.32;2.53;;;;;;;;;;6243529;28;20049;-81
2022/02/18 04:40:32;;;;;;;9.48;1.83;;;;;;;;;;6241523;28;20080;-79
2022/02/18 04:43:35;;;;;;;14.30;2.33;;;;;;;;;;6246321;28;20045;-80
2022/02/18 04:46:37;;;;;;;10.45;1.77;;;;;;;;;;6249718;28;20088;-82
2022/02/18 04:49:38;;;;;;;8.68;1.63;;;;;;;;;;6222469;28;20073;-80
2022/02/18 04:52:46;;;;;;;9.63;1.58;;;;;;;;;;6227683;28;20050;-79
2022/02/18 04:55:48;;;;;;;10.30;1.80;;;;;;;;;;6228949;28;20097;-82
2022/02/18 04:58:49;;;;;;;9.80;1.90;;;;;;;;;;6244594;28;20072;-81
2022/02/18 05:01:51;;;;;;;7.95;1.90;;;;;;;;;;6236592;28;20655;-80
2022/02/18 05:04:53;;;;;;;7.97;1.65;;;;;;;;;;6218028;28;20042;-82
2022/02/18 05:07:54;;;;;;;8.32;2.05;;;;;;;;;;6234214;28;20401;-81
2022/02/18 05:10:56;;;;;;;9.57;2.10;;;;;;;;;;6232821;28;20048;-79
2022/02/18 05:13:58;;;;;;;10.77;2.13;;;;;;;;;;6202736;28;1084225;-79
2022/02/18 05:16:59;;;;;;;11.13;2.70;;;;;;;;;;6236972;28;20056;-82
2022/02/18 05:20:02;;;;;;;15.30;3.15;;;;;;;;;;6217319;28;20544;-81
2022/02/18 05:23:03;;;;;;;12.13;2.80;;;;;;;;;;6217494;28;20133;-81
2022/02/18 05:26:05;;;;;;;15.25;2.67;;;;;;;;;;6216529;28;20062;-80
2022/02/18 05:29:06;;;;;;;7.55;2.17;;;;;;;;;;6217777;28;20096;-81
2022/02/18 05:32:08;;;;;;;9.18;2.45;;;;;;;;;;6223398;28;20041;-81
2022/02/18 05:35:10;;;;;;;11.20;2.55;;;;;;;;;;6262485;28;20059;-81
2022/02/18 05:38:12;;;;;;;15.93;2.40;;;;;;;;;;6243388;28;20510;-80
2022/02/18 05:41:14;;;;;;;12.20;4.32;;;;;;;;;;6237332;28;20053;-80
2022/02/18 05:44:16;;;;;;;12.52;3.83;;;;;;;;;;6239898;28;20091;-81
2022/02/18 05:47:17;;;;;;;13.77;4.40;;;;;;;;;;6240509;28;20533;-82
2022/02/18 05:50:19;;;;;;;12.35;3.67;;;;;;;;;;6256821;28;20132;-83
2022/02/18 05:53:23;;;;;;;9.73;3.63;;;;;;;;;;6245585;28;20053;-82
2022/02/18 05:56:28;;;;;;;14.88;4.50;;;;;;;;;;6240444;28;20042;-81
2022/02/18 05:59:30;;;;;;;15.27;3.85;;;;;;;;;;6244982;28;20631;-79
2022/02/18 06:02:32;;;;;;;13.50;3.95;;;;;;;;;;6242902;28;20517;-81
2022/02/18 06:05:33;;;;;;;12.60;3.88;;;;;;;;;;6232195;28;20129;-81
2022/02/18 06:08:35;;;;;;;15.27;2.40;;;;;;;;;;6217845;28;20192;-80
2022/02/18 06:11:37;;;;;;;13.75;2.58;;;;;;;;;;6216970;28;20072;-81
2022/02/18 06:14:39;;;;;;;6.75;2.10;;;;;;;;;;6215508;28;20796;-80
2022/02/18 06:17:41;;;;;;;6.88;2.08;;;;;;;;;;6230303;28;20776;-81
2022/02/18 06:20:42;;;;;;;10.07;2.20;;;;;;;;;;6241719;28;20144;-81
2022/02/18 06:23:44;;;;;;;9.57;2.95;;;;;;;;;;6258976;28;20091;-79
2022/02/18 06:26:46;;;;;;;6.97;2.35;;;;;;;;;;6248110;28;20057;-81
2022/02/18 06:29:49;;;;;;;14.77;6.78;;;;;;;;;;6217212;28;20490;-80
2022/02/18 06:32:50;;;;;;;;;;;;;;;;;;6215476;28;20049;-80
2022/02/18 06:35:56;;;;;;;11.63;4.25;;;;;;;;;;6225587;28;19932;-78
2022/02/18 06:38:58;;;;;;;13.88;5.38;;;;;;;;;;6235698;28;20037;-78
2022/02/18 06:42:00;;;;;;;15.95;5.65;;;;;;;;;;6228446;28;20049;-80
2022/02/18 06:45:02;;;;;;;12.23;5.30;;;;;;;;;;6230146;28;20048;-80
2022/02/18 06:48:05;;;;;;;12.10;5.80;;;;;;;;;;6239448;28;20184;-79
2022/02/18 06:51:06;;;;;;;18.52;5.85;;;;;;;;;;6238850;28;20184;-79
2022/02/18 06:54:08;;;;;;;16.17;5.68;;;;;;;;;;6239621;28;20113;-81
2022/02/18 06:57:27;;;;;;;14.82;5.38;;;;;;;;;;6215089;28;20580;-80
2022/02/18 07:00:29;;;;;;;16.83;5.60;;;;;;;;;;6225348;28;20193;-79
2022/02/18 07:03:31;;;;;;;15.82;5.97;;;;;;;;;;6258706;28;20052;-82
2022/02/18 07:06:33;;;;;;;19.13;5.68;;;;;;;;;;6254829;28;20132;-78
2022/02/18 07:09:34;;;;;;;15.55;4.30;;;;;;;;;;6268768;28;20096;-79
2022/02/18 07:12:36;;;;;;;10.60;3.92;;;;;;;;;;6240893;28;20120;-78
2022/02/18 07:15:38;;;;;;;9.65;4.15;;;;;;;;;;6247703;28;20066;-79
2022/02/18 07:18:41;;;;;;;10.68;3.38;;;;;;;;;;6254443;28;20116;-78
2022/02/18 07:21:42;;;;;;;13.13;5.05;;;;;;;;;;6258505;28;20069;-78
2022/02/18 07:24:46;;;;;;;11.57;2.67;;;;;;;;;;6259893;28;20053;-78
2022/02/18 07:27:47;;;;;;;12.82;2.80;;;;;;;;;;6258674;28;20065;-78
2022/02/18 07:30:49;;;;;;;10.93;2.53;;;;;;;;;;6255244;28;20053;-79
2022/02/18 07:33:51;;;;;;;14.43;2.88;;;;;;;;;;6233993;28;20165;-81
2022/02/18 07:36:52;;;;;;;11.73;2.85;;;;;;;;;;6257462;28;20449;-79
2022/02/18 07:39:54;;;;;;;9.93;3.40;;;;;;;;;;6264911;28;20071;-80
2022/02/18 07:42:56;;;;;;;18.67;4.00;;;;;;;;;;6231058;28;20046;-81
2022/02/18 07:45:58;;;;;;;15.73;4.22;;;;;;;;;;6235638;28;20048;-81
2022/02/18 07:49:00;;;;;;;17.10;4.68;;;;;;;;;;6233077;28;20052;-81
2022/02/18 07:52:02;;;;;;;16.67;3.83;;;;;;;;;;6237437;28;20175;-82
2022/02/18 07:55:04;;;;;;;14.45;3.50;;;;;;;;;;6256362;28;20567;-81
2022/02/18 07:58:06;;;;;;;14.93;4.28;;;;;;;;;;6240591;28;20057;-82
2022/02/18 08:01:08;;;;;;;10.02;3.50;;;;;;;;;;6243519;28;20069;-80
2022/02/18 08:04:09;;;;;;;18.90;6.95;;;;;;;;;;6257998;28;20069;-80
2022/02/18 08:07:13;;;;;;;11.15;3.92;;;;;;;;;;6244562;28;20065;-82
2022/02/18 08:10:15;;;;;;;14.10;3.28;;;;;;;;;;6245620;28;20045;-82
2022/02/18 08:13:17;;;;;;;18.38;3.63;;;;;;;;;;6239047;28;20050;-83
2022/02/18 08:16:19;;;;;;;20.83;5.70;;;;;;;;;;6223809;28;20112;-80
2022/02/18 08:19:21;;;;;;;25.85;4.47;;;;;;;;;;6238256;28;20132;-81
2022/02/18 08:22:27;;;;;;;12.85;2.90;;;;;;;;;;6224212;28;20123;-82
2022/02/18 08:25:28;;;;;;;9.48;2.53;;;;;;;;;;6235013;28;20052;-82
2022/02/18 08:28:30;;;;;;;20.20;4.55;;;;;;;;;;6245607;28;20042;-82
2022/02/18 08:31:31;;;;;;;16.65;3.95;;;;;;;;;;6236299;28;20426;-82
2022/02/18 08:34:33;;;;;;;15.50;3.75;;;;;;;;;;6231678;28;20050;-81
2022/02/18 08:37:39;;;;;;;16.13;3.53;;;;;;;;;;6225409;28;20069;-80
2022/02/18 08:40:41;;;;;;;17.80;2.95;;;;;;;;;;6242429;28;20041;-82
2022/02/18 08:43:42;;;;;;;16.63;3.28;;;;;;;;;;6230668;28;20125;-81
2022/02/18 08:46:56;;;;;;;18.52;4.68;;;;;;;;;;6245049;28;20129;-81
2022/02/18 08:49:58;;;;;;;17.67;3.80;;;;;;;;;;6233197;28;20101;-80
2022/02/18 08:53:00;;;;;;;20.73;3.85;;;;;;;;;;6239903;28;20057;-82
2022/02/18 08:56:01;;;;;;;22.02;3.53;;;;;;;;;;6240712;28;20465;-82
2022/02/18 08:59:06;;;;;;;;;;;;;;;;;;6258638;28;20048;-80
2022/02/18 09:02:10;;;;;;;20.08;6.13;;;;;;;;;;6254682;28;19925;-79
2022/02/18 09:05:12;;;;;;;15.68;2.67;;;;;;;;;;6237674;28;20042;-80
2022/02/18 09:08:14;;;;;;;14.25;3.38;;;;;;;;;;6261322;28;20158;-83
2022/02/18 09:11:18;;;;;;;23.48;4.05;;;;;;;;;;6256761;28;20038;-81
2022/02/18 09:14:20;;;;;;;17.13;3.88;;;;;;;;;;6246196;28;20101;-80
2022/02/18 09:17:36;;;;;;;37.28;9.05;;;;;;;;;;6231697;28;20038;-80
2022/02/18 09:20:37;;;;;;;13.48;3.80;;;;;;;;;;6221256;28;20049;-82
2022/02/18 09:23:44;;;;;;;15.48;3.35;;;;;;;;;;6238319;28;20042;-80
2022/02/18 09:26:47;;;;;;;13.55;3.17;;;;;;;;;;6250715;28;20049;-81
2022/02/18 09:29:49;;;;;;;16.95;3.10;;;;;;;;;;6244598;28;20095;-79
2022/02/18 09:32:52;;;;;;;13.67;3.10;;;;;;;;;;6240424;28;20068;-82
2022/02/18 09:35:53;;;;;;;14.90;3.20;;;;;;;;;;6239896;28;20045;-80
2022/02/18 09:38:55;;;;;;;14.85;2.78;;;;;;;;;;6241895;28;20120;-81
2022/02/18 09:41:57;;;;;;;17.45;3.88;;;;;;;;;;6246502;28;20070;-80
2022/02/18 09:45:00;;;;;;;16.27;3.87;;;;;;;;;;6245914;28;20128;-81
2022/02/18 09:48:02;;;;;;;20.33;6.90;;;;;;;;;;6259879;28;20041;-79
2022/02/18 09:51:04;;;;;;;16.47;4.67;;;;;;;;;;6274140;28;20200;-82
2022/02/18 09:54:07;;;;;;;14.27;4.70;;;;;;;;;;6227645;28;20444;-81
2022/02/18 09:57:08;;;;;;;20.40;6.85;;;;;;;;;;6227730;28;20132;-81
2022/02/18 10:00:11;;;;;;;12.27;3.30;;;;;;;;;;6243814;28;20501;-80
2022/02/18 10:03:15;;;;;;;10.98;3.33;;;;;;;;;;6233023;28;20046;-80
2022/02/18 10:06:17;;;;;;;16.80;3.92;;;;;;;;;;6235203;28;20068;-82
2022/02/18 10:09:41;;;;;;;14.02;5.38;;;;;;;;;;6229293;28;20046;-81
2022/02/18 10:12:43;;;;;;;17.25;3.58;;;;;;;;;;6227696;28;20077;-80
2022/02/18 10:15:45;;;;;;;24.38;7.25;;;;;;;;;;6229193;28;20053;-79
2022/02/18 10:18:59;;;;;;;25.10;8.02;;;;;;;;;;6222417;28;20050;-80
2022/02/18 10:22:03;;;;;;;17.70;5.63;;;;;;;;;;6241030;28;20263;-80
2022/02/18 10:25:07;;;;;;;13.23;4.53;;;;;;;;;;6236949;28;20080;-82
2022/02/18 10:28:12;;;;;;;13.65;4.55;;;;;;;;;;6255571;28;20136;-82
2022/02/18 10:31:17;;;;;;;11.18;3.72;;;;;;;;;;6252725;28;20042;-82
2022/02/18 10:34:19;;;;;;;14.68;4.13;;;;;;;;;;6218826;28;20050;-82
2022/02/18 10:37:22;;;;;;;7.43;3.17;;;;;;;;;;6231985;28;20080;-80
2022/02/18 10:40:24;;;;;;;11.05;3.70;;;;;;;;;;6223460;28;20053;-81
2022/02/18 10:43:27;;;;;;;11.30;4.55;;;;;;;;;;6224839;28;20202;-81
2022/02/18 10:46:55;;;;;;;12.05;4.43;;;;;;;;;;6224157;28;20060;-82
2022/02/18 10:49:58;;;;;;;9.13;5.03;;;;;;;;;;6239913;28;20675;-81
2022/02/18 10:53:11;;;;;;;13.18;4.15;;;;;;;;;;6239028;28;20041;-82
2022/02/18 10:56:14;;;;;;;8.50;2.90;;;;;;;;;;6237473;28;20176;-81
2022/02/18 10:59:32;;;;;;;10.90;3.30;;;;;;;;;;6236903;28;20053;-79
2022/02/18 11:02:55;;;;;;;7.57;2.90;;;;;;;;;;6234499;28;20141;-82
2022/02/18 11:06:15;;;;;;;7.07;2.50;;;;;;;;;;6238080;28;20092;-83
2022/02/18 11:09:17;;;;;;;6.32;2.58;;;;;;;;;;6237457;28;20045;-82
2022/02/18 11:12:19;;;;;;;4.72;2.17;;;;;;;;;;6218845;28;20050;-83
2022/02/18 11:15:21;;;;;;;4.85;2.45;;;;;;;;;;6228350;28;20052;-83
2022/02/18 11:18:23;;;;;;;7.43;2.58;;;;;;;;;;6256369;28;20042;-83
2022/02/18 11:21:27;;;;;;;8.07;2.20;;;;;;;;;;6238379;28;20049;-80
2022/02/18 11:24:29;;;;;;;7.22;2.70;;;;;;;;;;6241501;28;20052;-80
2022/02/18 11:27:30;;;;;;;11.60;2.67;;;;;;;;;;6229900;28;20087;-82
2022/02/18 11:30:35;;;;;;;3.97;2.10;;;;;;;;;;6242057;28;20139;-80
2022/02/18 11:33:56;;;;;;;7.43;3.50;;;;;;;;;;6237480;28;20168;-80
2022/02/18 11:37:03;;;;;;;8.05;3.55;;;;;;;;;;6222488;28;20099;-80
2022/02/18 11:40:27;;;;;;;7.35;2.72;;;;;;;;;;6256843;28;20041;-81
2022/02/18 11:43:33;;;;;;;2.50;1.50;;;;;;;;;;6254722;28;20091;-81
2022/02/18 11:46:34;;;;;;;4.20;1.10;;;;;;;;;;6243523;28;20041;-79
2022/02/18 11:49:36;;;;;;;5.75;1.90;;;;;;;;;;6237196;28;20167;-79
2022/02/18 11:52:43;;;;;;;3.78;1.38;;;;;;;;;;6238305;28;20116;-78
2022/02/18 11:55:51;;;;;;;2.20;1.10;;;;;;;;;;6240502;28;20041;-80
2022/02/18 11:59:05;;;;;;;2.58;0.90;;;;;;;;;;6238056;28;20059;-80
2022/02/18 12:02:09;;;;;;;3.15;1.00;;;;;;;;;;6229405;28;20621;-80
2022/02/18 12:05:16;;;;;;;2.55;1.30;;;;;;;;;;6215255;28;20066;-80
2022/02/18 12:08:28;;;;;;;2.50;1.30;;;;;;;;;;6230071;28;20053;-79
2022/02/18 12:11:43;;;;;;;2.03;1.47;;;;;;;;;;6226795;28;20190;-81
2022/02/18 12:14:49;;;;;;;1.45;1.13;;;;;;;;;;6240447;28;20056;-80
2022/02/18 12:17:57;;;;;;;4.32;1.27;;;;;;;;;;6249836;28;20046;-82
2022/02/18 12:21:08;;;;;;;24.35;10.73;;;;;;;;;;6192916;28;20478;-81
2022/02/18 12:24:42;;;;;;;1.58;1.00;;;;;;;;;;6195712;28;20129;-82
2022/02/18 12:27:44;;;;;;;1.60;0.77;;;;;;;;;;6255398;28;20097;-81
2022/02/18 12:30:52;;;;;;;2.65;0.90;;;;;;;;;;6256687;28;20049;-82
2022/02/18 12:33:54;;;;;;;2.25;0.90;;;;;;;;;;6240331;28;20104;-82
2022/02/18 12:36:57;;;;;;;1.20;0.70;;;;;;;;;;6263810;28;20849;-79
2022/02/18 12:40:00;;;;;;;3.27;0.90;;;;;;;;;;6250615;28;20059;-80
2022/02/18 12:43:06;;;;;;;2.97;0.93;;;;;;;;;;6225512;28;20089;-83
2022/02/18 12:46:08;;;;;;;3.63;2.50;;;;;;;;;;6225977;28;20494;-82
2022/02/18 12:49:10;;;;;;;4.13;1.92;;;;;;;;;;6259583;28;20041;-82
2022/02/18 12:52:13;;;;;;;0.77;0.60;;;;;;;;;;6249517;28;20049;-81
2022/02/18 12:55:17;;;;;;;3.37;0.80;;;;;;;;;;6236997;28;20084;-81
2022/02/18 12:58:21;;;;;;;0.75;0.63;;;;;;;;;;6257075;28;20441;-81
2022/02/18 13:01:23;;;;;;;1.67;0.90;;;;;;;;;;6238520;28;20065;-82
2022/02/18 13:04:26;;;;;;;1.15;0.60;;;;;;;;;;6256487;28;20045;-81
2022/02/18 13:07:33;;;;;;;0.70;0.65;;;;;;;;;;6255345;28;20052;-82
2022/02/18 13:10:37;;;;;;;0.38;0.38;;;;;;;;;;6249812;28;20041;-82
2022/02/18 13:13:39;;;;;;;0.43;0.40;;;;;;;;;;6243053;28;20041;-81
2022/02/18 13:16:47;;;;;;;0.52;0.50;;;;;;;;;;6241164;28;20172;-78
2022/02/18 13:19:49;;;;;;;0.45;0.30;;;;;;;;;;6243408;28;20052;-80
2022/02/18 13:22:55;;;;;;;1.48;0.30;;;;;;;;;;6262453;28;20052;-82
2022/02/18 13:25:59;;;;;;;0.22;0.20;;;;;;;;;;6242217;28;20189;-83
2022/02/18 13:29:01;;;;;;;0.40;0.40;;;;;;;;;;6259596;28;20461;-82
2022/02/18 13:32:22;;;;;;;0.20;0.20;;;;;;;;;;6245667;28;20072;-81
2022/02/18 13:35:25;;;;;;;0.82;0.40;;;;;;;;;;6252982;28;20104;-81
2022/02/18 13:38:33;;;;;;;0.38;0.32;;;;;;;;;;6272873;28;20491;-83
2022/02/18 13:41:37;;;;;;;0.30;0.30;;;;;;;;;;6240338;28;20065;-82
2022/02/18 13:45:00;;;;;;;0.40;0.32;;;;;;;;;;6220888;28;20041;-80
2022/02/18 13:48:07;;;;;;;0.20;0.20;;;;;;;;;;6257706;28;20041;-81
2022/02/18 13:51:09;;;;;;;0.20;0.20;;;;;;;;;;6265494;28;20056;-80
2022/02/18 13:54:11;;;;;;;0.30;0.30;;;;;;;;;;6238116;28;20046;-81
2022/02/18 13:57:20;;;;;;;0.20;0.20;;;;;;;;;;6235691;28;20068;-81
2022/02/18 14:00:38;;;;;;;0.30;0.30;;;;;;;;;;6255315;28;20708;-80
2022/02/18 14:04:20;;;;;;;0.30;0.30;;;;;;;;;;6240419;28;20045;-81
2022/02/18 14:07:27;;;;;;;1.20;0.73;;;;;;;;;;6188627;28;20049;-81
2022/02/18 14:10:38;;;;;;;0.45;0.30;;;;;;;;;;6232651;28;20049;-81
2022/02/18 14:13:40;;;;;;;0.35;0.20;;;;;;;;;;6212234;28;20046;-81
2022/02/18 14:16:55;;;;;;;0.38;0.25;;;;;;;;;;6215190;28;20132;-82
2022/02/18 14:20:02;;;;;;;0.98;0.20;;;;;;;;;;6212750;28;20459;-81
2022/02/18 14:23:04;;;;;;;0.22;0.10;;;;;;;;;;6215622;28;20607;-81
2022/02/18 14:26:13;;;;;;;0.20;0.20;;;;;;;;;;6237836;28;20049;-81
2022/02/18 14:29:14;;;;;;;1.30;0.32;;;;;;;;;;6235712;28;20272;-81
2022/02/18 14:32:24;;;;;;;0.40;0.30;;;;;;;;;;6256400;28;20186;-83
2022/02/18 14:35:26;;;;;;;0.30;0.30;;;;;;;;;;6242039;28;20041;-81
2022/02/18 14:38:27;;;;;;;0.95;0.20;;;;;;;;;;6248635;28;20095;-82
2022/02/18 14:41:29;;;;;;;0.95;0.20;;;;;;;;;;6236622;28;20121;-82
2022/02/18 14:44:54;;;;;;;0.95;0.20;;;;;;;;;;6226812;28;20052;-80
2022/02/18 14:47:56;;;;;;;1.40;0.30;;;;;;;;;;6255879;28;20481;-82
2022/02/18 14:50:58;;;;;;;1.75;0.20;;;;;;;;;;6251909;28;20441;-84
2022/02/18 14:54:00;;;;;;;0.40;0.20;;;;;;;;;;6241425;28;20053;-83
2022/02/18 14:57:02;;;;;;;0.50;0.20;;;;;;;;;;6229100;28;20565;-82
2022/02/18 15:00:04;;;;;;;0.30;0.30;;;;;;;;;;6224123;28;20108;-81
2022/02/18 15:03:06;;;;;;;1.35;1.25;;;;;;;;;;6237505;28;20126;-81
2022/02/18 15:06:08;;;;;;;0.80;0.30;;;;;;;;;;6239669;28;20045;-82
2022/02/18 15:09:10;;;;;;;1.15;0.35;;;;;;;;;;6241976;28;20135;-82
2022/02/18 15:12:11;;;;;;;0.82;0.30;;;;;;;;;;6238224;28;20132;-82
2022/02/18 15:15:14;;;;;;;1.15;0.40;;;;;;;;;;6238384;28;20045;-81
2022/02/18 15:18:20;;;;;;;0.38;0.28;;;;;;;;;;6256956;28;20125;-82
2022/02/18 15:21:22;;;;;;;0.30;0.30;;;;;;;;;;6239070;28;20045;-81
2022/02/18 15:24:24;;;;;;;0.30;0.20;;;;;;;;;;6240657;28;20414;-81
2022/02/18 15:27:28;;;;;;;0.32;0.28;;;;;;;;;;6243220;28;20124;-82
2022/02/18 15:37:12;;;;;;;0.47;0.30;;;;;;;;;;6247397;28;20464;-82
2022/02/18 15:43:39;;;;;;;1.10;0.40;;;;;;;;;;6217421;28;20112;-82
2022/02/18 15:46:42;;;;;;;1.10;0.40;;;;;;;;;;6252858;28;20591;-82
2022/02/18 15:49:46;;;;;;;0.30;0.30;;;;;;;;;;6256804;28;21040;-81
2022/02/18 15:52:48;;;;;;;1.15;0.50;;;;;;;;;;6221736;28;20065;-82
2022/02/18 15:55:50;;;;;;;0.47;0.30;;;;;;;;;;6262116;28;20072;-82
2022/02/18 15:58:53;;;;;;;1.00;0.30;;;;;;;;;;6245968;28;20103;-82
2022/02/18 16:01:55;;;;;;;0.33;0.23;;;;;;;;;;6249021;28;20156;-82
2022/02/18 16:04:56;;;;;;;0.70;0.20;;;;;;;;;;6244068;28;20103;-82
2022/02/18 16:07:58;;;;;;;0.75;0.30;;;;;;;;;;6254856;28;20042;-82
2022/02/18 16:11:01;;;;;;;2.40;0.52;;;;;;;;;;6246987;28;20057;-83
2022/02/18 16:14:03;;;;;;;0.23;0.13;;;;;;;;;;6245571;28;20120;-81
2022/02/18 16:17:05;;;;;;;1.05;0.15;;;;;;;;;;6255362;28;20248;-82
2022/02/18 16:20:07;;;;;;;0.52;0.10;;;;;;;;;;6232803;28;20042;-80
2022/02/18 16:23:10;;;;;;;0.80;0.20;;;;;;;;;;6233693;28;20038;-81
2022/02/18 16:26:12;;;;;;;;;;;;;;;;;;6219986;28;20045;-81
2022/02/18 16:29:14;;;;;;;0.32;0.30;;;;;;;;;;6217975;28;19921;-80
2022/02/18 16:32:16;;;;;;;0.20;0.20;;;;;;;;;;6217006;28;20079;-81
2022/02/18 16:35:18;;;;;;;0.20;0.20;;;;;;;;;;6232396;28;20537;-83
2022/02/18 16:38:20;;;;;;;0.10;0.10;;;;;;;;;;6266373;28;20045;-81
2022/02/18 16:41:21;;;;;;;0.20;0.20;;;;;;;;;;6240286;28;20046;-81
2022/02/18 16:44:23;;;;;;;0.17;0.17;;;;;;;;;;6216199;28;20134;-81
2022/02/18 16:47:27;;;;;;;0.32;0.20;;;;;;;;;;6219160;28;20057;-80
2022/02/18 16:50:29;;;;;;;0.25;0.20;;;;;;;;;;6234325;28;20136;-80
2022/02/18 16:53:31;;;;;;;0.40;0.10;;;;;;;;;;6243758;28;20141;-80
2022/02/18 16:56:33;;;;;;;0.17;0.10;;;;;;;;;;6238869;28;20692;-81
2022/02/18 16:59:35;;;;;;;0.53;0.20;;;;;;;;;;6240460;28;20402;-79
2022/02/18 17:02:37;;;;;;;1.70;0.20;;;;;;;;;;6238828;28;20604;-79
2022/02/18 17:05:44;;;;;;;1.10;0.35;;;;;;;;;;6219232;28;20062;-81
2022/02/18 17:08:46;;;;;;;0.35;0.10;;;;;;;;;;6216516;28;20511;-81
2022/02/18 17:11:48;;;;;;;1.65;0.30;;;;;;;;;;6215786;28;20462;-81
2022/02/18 17:14:50;;;;;;;0.30;0.30;;;;;;;;;;6214191;28;20053;-81
2022/02/18 17:17:53;;;;;;;0.30;0.20;;;;;;;;;;6214600;28;20117;-81
2022/02/18 17:20:55;;;;;;;0.40;0.25;;;;;;;;;;6225979;28;20065;-81
2022/02/18 17:24:00;;;;;;;2.10;0.45;;;;;;;;;;6254932;28;20112;-81
2022/02/18 17:27:02;;;;;;;2.03;0.20;;;;;;;;;;6220575;28;20052;-81
2022/02/18 17:30:07;;;;;;;1.85;0.40;;;;;;;;;;6215397;28;20533;-80
2022/02/18 17:33:08;;;;;;;2.00;0.60;;;;;;;;;;6229574;28;20042;-84
2022/02/18 17:36:11;;;;;;;0.73;0.32;;;;;;;;;;6227514;28;20046;-81
2022/02/18 17:39:13;;;;;;;2.47;0.40;;;;;;;;;;6241010;28;20061;-81
2022/02/18 17:42:16;;;;;;;1.27;0.38;;;;;;;;;;6237032;28;20060;-82
2022/02/18 17:45:18;;;;;;;3.30;0.52;;;;;;;;;;6243749;28;20179;-81
2022/02/18 17:48:20;;;;;;;4.15;0.45;;;;;;;;;;6269925;28;20176;-81
2022/02/18 17:51:21;;;;;;;1.90;0.30;;;;;;;;;;6226348;28;20585;-81
2022/02/18 17:54:23;;;;;;;2.35;0.50;;;;;;;;;;6245216;28;20628;-83
2022/02/18 17:57:25;;;;;;;2.33;0.70;;;;;;;;;;6227852;28;20538;-82
2022/02/18 18:00:29;;;;;;;2.42;0.38;;;;;;;;;;6268800;28;20136;-81
2022/02/18 18:03:31;;;;;;;2.33;0.40;;;;;;;;;;6224502;28;20490;-80
2022/02/18 18:06:32;;;;;;;5.03;0.45;;;;;;;;;;6255411;28;20041;-80
2022/02/18 18:09:34;;;;;;;2.65;0.50;;;;;;;;;;6270416;28;20173;-80
2022/02/18 18:12:36;;;;;;;2.58;0.77;;;;;;;;;;6236446;28;20104;-81
2022/02/18 18:15:38;;;;;;;6.38;0.55;;;;;;;;;;6243670;28;20100;-81
2022/02/18 18:18:39;;;;;;;1.75;0.60;;;;;;;;;;6245948;28;20041;-81
2022/02/18 18:21:41;;;;;;;0.90;0.30;;;;;;;;;;6245341;28;20044;-81
2022/02/18 18:24:43;;;;;;;4.15;1.48;;;;;;;;;;6241260;28;20081;-81
2022/02/18 18:27:45;;;;;;;2.28;0.63;;;;;;;;;;6227890;28;20052;-81